<?xml version="1.0" encoding="UTF-8" standalone="no" ?>
<gpx xmlns="http://www.topografix.com/GPX/1/1" xmlns:xsi="http://www.w3.org/2001/XMLSchema-instance" xsi:schemaLocation="http://www.topografix.com/GPX/1/1 http://www.topografix.com/GPX/1/1/gpx.xsd" version="1.1" creator="VisuGPX - https://www.visugpx.com">
  <metadata>
    <name>StRemyMauges_Avoye2boucles_20km</name>
    <desc><![CDATA[J2 le 16/05/24 20km 2 boucles La Boissière - Montrevault]]></desc>
  </metadata>
  <trk>
    <name><![CDATA[Circuit de L'avoye-9691544]]></name>
    <extensions>
      <line xmlns="http://www.topografix.com/GPX/gpx_style/0/2">
        <color>0000FF</color>
        <width>4</width>
      </line>
    </extensions>
    <trkseg>
      <trkpt lat="47.27369" lon="-1.07692">
        <ele>87</ele>
        <time>2024-05-15T06:45:21Z</time>
      </trkpt>
      <trkpt lat="47.27368" lon="-1.07674">
        <ele>87</ele>
        <time>2024-05-15T06:45:37Z</time>
      </trkpt>
      <trkpt lat="47.27359" lon="-1.07635">
        <ele>87</ele>
        <time>2024-05-15T06:46:15Z</time>
      </trkpt>
      <trkpt lat="47.27364" lon="-1.076">
        <ele>86</ele>
        <time>2024-05-15T06:46:47Z</time>
      </trkpt>
      <trkpt lat="47.27372" lon="-1.07589">
        <ele>86</ele>
        <time>2024-05-15T06:47:02Z</time>
      </trkpt>
      <trkpt lat="47.27385" lon="-1.07582">
        <ele>85</ele>
        <time>2024-05-15T06:47:20Z</time>
      </trkpt>
      <trkpt lat="47.27408" lon="-1.07597">
        <ele>84</ele>
        <time>2024-05-15T06:47:54Z</time>
      </trkpt>
      <trkpt lat="47.2744" lon="-1.07641">
        <ele>82</ele>
        <time>2024-05-15T06:48:52Z</time>
      </trkpt>
      <trkpt lat="47.27458" lon="-1.07674">
        <ele>82</ele>
        <time>2024-05-15T06:49:30Z</time>
      </trkpt>
      <trkpt lat="47.27487" lon="-1.07718">
        <ele>82</ele>
        <time>2024-05-15T06:50:26Z</time>
      </trkpt>
      <trkpt lat="47.275" lon="-1.07732">
        <ele>82</ele>
        <time>2024-05-15T06:50:47Z</time>
      </trkpt>
      <trkpt lat="47.27513" lon="-1.07738">
        <ele>82</ele>
        <time>2024-05-15T06:51:06Z</time>
      </trkpt>
      <trkpt lat="47.27523" lon="-1.07728">
        <ele>83</ele>
        <time>2024-05-15T06:51:22Z</time>
      </trkpt>
      <trkpt lat="47.27547" lon="-1.07681">
        <ele>83</ele>
        <time>2024-05-15T06:52:15Z</time>
      </trkpt>
      <trkpt lat="47.27592" lon="-1.07608">
        <ele>83</ele>
        <time>2024-05-15T06:53:44Z</time>
      </trkpt>
      <trkpt lat="47.27635" lon="-1.07567">
        <ele>85</ele>
        <time>2024-05-15T06:54:53Z</time>
      </trkpt>
      <trkpt lat="47.27659" lon="-1.07549">
        <ele>85</ele>
        <time>2024-05-15T06:55:29Z</time>
      </trkpt>
      <trkpt lat="47.27697" lon="-1.07528">
        <ele>85</ele>
        <time>2024-05-15T06:56:23Z</time>
      </trkpt>
      <trkpt lat="47.27757" lon="-1.07477">
        <ele>84</ele>
        <time>2024-05-15T06:57:55Z</time>
      </trkpt>
      <trkpt lat="47.2781" lon="-1.07418">
        <ele>81</ele>
        <time>2024-05-15T06:59:24Z</time>
      </trkpt>
      <trkpt lat="47.27842" lon="-1.07377">
        <ele>81</ele>
        <time>2024-05-15T07:00:20Z</time>
      </trkpt>
      <trkpt lat="47.2789" lon="-1.07332">
        <ele>80</ele>
        <time>2024-05-15T07:01:36Z</time>
      </trkpt>
      <trkpt lat="47.2794" lon="-1.073">
        <ele>81</ele>
        <time>2024-05-15T07:02:49Z</time>
      </trkpt>
      <trkpt lat="47.27952" lon="-1.073">
        <ele>82</ele>
        <time>2024-05-15T07:03:05Z</time>
      </trkpt>
      <trkpt lat="47.28" lon="-1.07369">
        <ele>83</ele>
        <time>2024-05-15T07:04:35Z</time>
      </trkpt>
      <trkpt lat="47.2804" lon="-1.07451">
        <ele>85</ele>
        <time>2024-05-15T07:06:06Z</time>
      </trkpt>
      <trkpt lat="47.28056" lon="-1.07502">
        <ele>86</ele>
        <time>2024-05-15T07:06:57Z</time>
      </trkpt>
      <trkpt lat="47.28064" lon="-1.07516">
        <ele>86</ele>
        <time>2024-05-15T07:07:13Z</time>
      </trkpt>
      <trkpt lat="47.28073" lon="-1.07554">
        <ele>86</ele>
        <time>2024-05-15T07:07:50Z</time>
      </trkpt>
      <trkpt lat="47.2809" lon="-1.07606">
        <ele>87</ele>
        <time>2024-05-15T07:08:42Z</time>
      </trkpt>
      <trkpt lat="47.28099" lon="-1.07645">
        <ele>88</ele>
        <time>2024-05-15T07:09:19Z</time>
      </trkpt>
      <trkpt lat="47.28104" lon="-1.07682">
        <ele>89</ele>
        <time>2024-05-15T07:09:54Z</time>
      </trkpt>
      <trkpt lat="47.28105" lon="-1.07728">
        <ele>90</ele>
        <time>2024-05-15T07:10:35Z</time>
      </trkpt>
      <trkpt lat="47.28111" lon="-1.07764">
        <ele>90</ele>
        <time>2024-05-15T07:11:09Z</time>
      </trkpt>
      <trkpt lat="47.28111" lon="-1.07805">
        <ele>90</ele>
        <time>2024-05-15T07:11:46Z</time>
      </trkpt>
      <trkpt lat="47.28115" lon="-1.07828">
        <ele>90</ele>
        <time>2024-05-15T07:12:07Z</time>
      </trkpt>
      <trkpt lat="47.28119" lon="-1.07838">
        <ele>90</ele>
        <time>2024-05-15T07:12:18Z</time>
      </trkpt>
      <trkpt lat="47.2812" lon="-1.07862">
        <ele>90</ele>
        <time>2024-05-15T07:12:40Z</time>
      </trkpt>
      <trkpt lat="47.28129" lon="-1.07899">
        <ele>90</ele>
        <time>2024-05-15T07:13:15Z</time>
      </trkpt>
      <trkpt lat="47.28148" lon="-1.07953">
        <ele>89</ele>
        <time>2024-05-15T07:14:10Z</time>
      </trkpt>
      <trkpt lat="47.28152" lon="-1.07977">
        <ele>88</ele>
        <time>2024-05-15T07:14:33Z</time>
      </trkpt>
      <trkpt lat="47.28151" lon="-1.07994">
        <ele>88</ele>
        <time>2024-05-15T07:14:48Z</time>
      </trkpt>
      <trkpt lat="47.281" lon="-1.08021">
        <ele>88</ele>
        <time>2024-05-15T07:16:00Z</time>
      </trkpt>
      <trkpt lat="47.2806" lon="-1.08035">
        <ele>89</ele>
        <time>2024-05-15T07:16:55Z</time>
      </trkpt>
      <trkpt lat="47.27978" lon="-1.08044">
        <ele>91</ele>
        <time>2024-05-15T07:18:45Z</time>
      </trkpt>
      <trkpt lat="47.27954" lon="-1.08056">
        <ele>92</ele>
        <time>2024-05-15T07:19:19Z</time>
      </trkpt>
      <trkpt lat="47.27957" lon="-1.08076">
        <ele>91</ele>
        <time>2024-05-15T07:19:37Z</time>
      </trkpt>
      <trkpt lat="47.27971" lon="-1.08109">
        <ele>90</ele>
        <time>2024-05-15T07:20:13Z</time>
      </trkpt>
      <trkpt lat="47.27976" lon="-1.08127">
        <ele>89</ele>
        <time>2024-05-15T07:20:30Z</time>
      </trkpt>
      <trkpt lat="47.27994" lon="-1.08211">
        <ele>88</ele>
        <time>2024-05-15T07:21:50Z</time>
      </trkpt>
      <trkpt lat="47.28002" lon="-1.08233">
        <ele>88</ele>
        <time>2024-05-15T07:22:13Z</time>
      </trkpt>
      <trkpt lat="47.28017" lon="-1.08262">
        <ele>88</ele>
        <time>2024-05-15T07:22:46Z</time>
      </trkpt>
      <trkpt lat="47.28038" lon="-1.08318">
        <ele>87</ele>
        <time>2024-05-15T07:23:44Z</time>
      </trkpt>
      <trkpt lat="47.28049" lon="-1.08363">
        <ele>88</ele>
        <time>2024-05-15T07:24:27Z</time>
      </trkpt>
      <trkpt lat="47.28055" lon="-1.08408">
        <ele>89</ele>
        <time>2024-05-15T07:25:08Z</time>
      </trkpt>
      <trkpt lat="47.2806" lon="-1.08426">
        <ele>89</ele>
        <time>2024-05-15T07:25:26Z</time>
      </trkpt>
      <trkpt lat="47.28069" lon="-1.08481">
        <ele>90</ele>
        <time>2024-05-15T07:26:17Z</time>
      </trkpt>
      <trkpt lat="47.28082" lon="-1.08574">
        <ele>90</ele>
        <time>2024-05-15T07:27:43Z</time>
      </trkpt>
      <trkpt lat="47.28091" lon="-1.08717">
        <ele>90</ele>
        <time>2024-05-15T07:29:53Z</time>
      </trkpt>
      <trkpt lat="47.28097" lon="-1.08753">
        <ele>88</ele>
        <time>2024-05-15T07:30:27Z</time>
      </trkpt>
      <trkpt lat="47.28107" lon="-1.08786">
        <ele>87</ele>
        <time>2024-05-15T07:30:59Z</time>
      </trkpt>
      <trkpt lat="47.2811" lon="-1.08806">
        <ele>87</ele>
        <time>2024-05-15T07:31:18Z</time>
      </trkpt>
      <trkpt lat="47.2812" lon="-1.08815">
        <ele>86</ele>
        <time>2024-05-15T07:31:34Z</time>
      </trkpt>
      <trkpt lat="47.28133" lon="-1.08816">
        <ele>86</ele>
        <time>2024-05-15T07:31:51Z</time>
      </trkpt>
      <trkpt lat="47.28159" lon="-1.08807">
        <ele>86</ele>
        <time>2024-05-15T07:32:27Z</time>
      </trkpt>
      <trkpt lat="47.28188" lon="-1.08788">
        <ele>85</ele>
        <time>2024-05-15T07:33:09Z</time>
      </trkpt>
      <trkpt lat="47.28201" lon="-1.08769">
        <ele>85</ele>
        <time>2024-05-15T07:33:33Z</time>
      </trkpt>
      <trkpt lat="47.28253" lon="-1.0871">
        <ele>85</ele>
        <time>2024-05-15T07:35:01Z</time>
      </trkpt>
      <trkpt lat="47.28311" lon="-1.08658">
        <ele>83</ele>
        <time>2024-05-15T07:36:32Z</time>
      </trkpt>
      <trkpt lat="47.28337" lon="-1.08624">
        <ele>83</ele>
        <time>2024-05-15T07:37:18Z</time>
      </trkpt>
      <trkpt lat="47.28374" lon="-1.08594">
        <ele>81</ele>
        <time>2024-05-15T07:38:14Z</time>
      </trkpt>
      <trkpt lat="47.28395" lon="-1.08569">
        <ele>79</ele>
        <time>2024-05-15T07:38:50Z</time>
      </trkpt>
      <trkpt lat="47.28417" lon="-1.0855">
        <ele>77</ele>
        <time>2024-05-15T07:39:24Z</time>
      </trkpt>
      <trkpt lat="47.28441" lon="-1.08479">
        <ele>77</ele>
        <time>2024-05-15T07:40:36Z</time>
      </trkpt>
      <trkpt lat="47.28451" lon="-1.08475">
        <ele>77</ele>
        <time>2024-05-15T07:40:50Z</time>
      </trkpt>
      <trkpt lat="47.28464" lon="-1.08465">
        <ele>77</ele>
        <time>2024-05-15T07:41:10Z</time>
      </trkpt>
      <trkpt lat="47.28474" lon="-1.08453">
        <ele>78</ele>
        <time>2024-05-15T07:41:27Z</time>
      </trkpt>
      <trkpt lat="47.28492" lon="-1.08417">
        <ele>79</ele>
        <time>2024-05-15T07:42:07Z</time>
      </trkpt>
      <trkpt lat="47.28496" lon="-1.08418">
        <ele>79</ele>
        <time>2024-05-15T07:42:13Z</time>
      </trkpt>
      <trkpt lat="47.28506" lon="-1.08433">
        <ele>78</ele>
        <time>2024-05-15T07:42:32Z</time>
      </trkpt>
      <trkpt lat="47.2853" lon="-1.08449">
        <ele>78</ele>
        <time>2024-05-15T07:43:07Z</time>
      </trkpt>
      <trkpt lat="47.28566" lon="-1.08479">
        <ele>77</ele>
        <time>2024-05-15T07:44:02Z</time>
      </trkpt>
      <trkpt lat="47.2865" lon="-1.08536">
        <ele>76</ele>
        <time>2024-05-15T07:46:05Z</time>
      </trkpt>
      <trkpt lat="47.28674" lon="-1.08557">
        <ele>75</ele>
        <time>2024-05-15T07:46:43Z</time>
      </trkpt>
      <trkpt lat="47.28695" lon="-1.08583">
        <ele>75</ele>
        <time>2024-05-15T07:47:19Z</time>
      </trkpt>
      <trkpt lat="47.2871" lon="-1.08581">
        <ele>76</ele>
        <time>2024-05-15T07:47:39Z</time>
      </trkpt>
      <trkpt lat="47.28724" lon="-1.08583">
        <ele>76</ele>
        <time>2024-05-15T07:47:58Z</time>
      </trkpt>
      <trkpt lat="47.28783" lon="-1.08578">
        <ele>76</ele>
        <time>2024-05-15T07:49:17Z</time>
      </trkpt>
      <trkpt lat="47.28839" lon="-1.08585">
        <ele>75</ele>
        <time>2024-05-15T07:50:32Z</time>
      </trkpt>
      <trkpt lat="47.28865" lon="-1.0858">
        <ele>74</ele>
        <time>2024-05-15T07:51:07Z</time>
      </trkpt>
      <trkpt lat="47.28905" lon="-1.08582">
        <ele>73</ele>
        <time>2024-05-15T07:52:00Z</time>
      </trkpt>
      <trkpt lat="47.28932" lon="-1.08587">
        <ele>72</ele>
        <time>2024-05-15T07:52:37Z</time>
      </trkpt>
      <trkpt lat="47.28961" lon="-1.08598">
        <ele>69</ele>
        <time>2024-05-15T07:53:17Z</time>
      </trkpt>
      <trkpt lat="47.28969" lon="-1.08592">
        <ele>68</ele>
        <time>2024-05-15T07:53:29Z</time>
      </trkpt>
      <trkpt lat="47.2898" lon="-1.08597">
        <ele>67</ele>
        <time>2024-05-15T07:53:44Z</time>
      </trkpt>
      <trkpt lat="47.28987" lon="-1.08604">
        <ele>67</ele>
        <time>2024-05-15T07:53:55Z</time>
      </trkpt>
      <trkpt lat="47.29004" lon="-1.0861">
        <ele>65</ele>
        <time>2024-05-15T07:54:19Z</time>
      </trkpt>
      <trkpt lat="47.29035" lon="-1.08607">
        <ele>59</ele>
        <time>2024-05-15T07:55:00Z</time>
      </trkpt>
      <trkpt lat="47.29061" lon="-1.08593">
        <ele>55</ele>
        <time>2024-05-15T07:55:37Z</time>
      </trkpt>
      <trkpt lat="47.29073" lon="-1.08579">
        <ele>53</ele>
        <time>2024-05-15T07:55:57Z</time>
      </trkpt>
      <trkpt lat="47.29123" lon="-1.08556">
        <ele>44</ele>
        <time>2024-05-15T07:57:07Z</time>
      </trkpt>
      <trkpt lat="47.29142" lon="-1.08541">
        <ele>41</ele>
        <time>2024-05-15T07:57:36Z</time>
      </trkpt>
      <trkpt lat="47.29159" lon="-1.08533">
        <ele>38</ele>
        <time>2024-05-15T07:58:00Z</time>
      </trkpt>
      <trkpt lat="47.29167" lon="-1.08536">
        <ele>37</ele>
        <time>2024-05-15T07:58:11Z</time>
      </trkpt>
      <trkpt lat="47.29173" lon="-1.08548">
        <ele>38</ele>
        <time>2024-05-15T07:58:24Z</time>
      </trkpt>
      <trkpt lat="47.29189" lon="-1.08511">
        <ele>39</ele>
        <time>2024-05-15T07:59:04Z</time>
      </trkpt>
      <trkpt lat="47.29191" lon="-1.08499">
        <ele>38</ele>
        <time>2024-05-15T07:59:15Z</time>
      </trkpt>
      <trkpt lat="47.29201" lon="-1.0849">
        <ele>39</ele>
        <time>2024-05-15T07:59:31Z</time>
      </trkpt>
      <trkpt lat="47.29198" lon="-1.08539">
        <ele>40</ele>
        <time>2024-05-15T08:00:15Z</time>
      </trkpt>
      <trkpt lat="47.29204" lon="-1.08583">
        <ele>43</ele>
        <time>2024-05-15T08:00:56Z</time>
      </trkpt>
      <trkpt lat="47.29204" lon="-1.08599">
        <ele>43</ele>
        <time>2024-05-15T08:01:11Z</time>
      </trkpt>
      <trkpt lat="47.29215" lon="-1.0864">
        <ele>45</ele>
        <time>2024-05-15T08:01:50Z</time>
      </trkpt>
      <trkpt lat="47.29223" lon="-1.08691">
        <ele>45</ele>
        <time>2024-05-15T08:02:38Z</time>
      </trkpt>
      <trkpt lat="47.29229" lon="-1.08714">
        <ele>44</ele>
        <time>2024-05-15T08:03:00Z</time>
      </trkpt>
      <trkpt lat="47.29229" lon="-1.08733">
        <ele>43</ele>
        <time>2024-05-15T08:03:17Z</time>
      </trkpt>
      <trkpt lat="47.29239" lon="-1.08757">
        <ele>42</ele>
        <time>2024-05-15T08:03:43Z</time>
      </trkpt>
      <trkpt lat="47.2924" lon="-1.08765">
        <ele>42</ele>
        <time>2024-05-15T08:03:50Z</time>
      </trkpt>
      <trkpt lat="47.29262" lon="-1.08783">
        <ele>43</ele>
        <time>2024-05-15T08:04:24Z</time>
      </trkpt>
      <trkpt lat="47.29272" lon="-1.08787">
        <ele>45</ele>
        <time>2024-05-15T08:04:38Z</time>
      </trkpt>
      <trkpt lat="47.29303" lon="-1.08788">
        <ele>50</ele>
        <time>2024-05-15T08:05:19Z</time>
      </trkpt>
      <trkpt lat="47.29318" lon="-1.08784">
        <ele>53</ele>
        <time>2024-05-15T08:05:39Z</time>
      </trkpt>
      <trkpt lat="47.29327" lon="-1.08775">
        <ele>54</ele>
        <time>2024-05-15T08:05:54Z</time>
      </trkpt>
      <trkpt lat="47.29364" lon="-1.08766">
        <ele>56</ele>
        <time>2024-05-15T08:06:44Z</time>
      </trkpt>
      <trkpt lat="47.29392" lon="-1.08766">
        <ele>58</ele>
        <time>2024-05-15T08:07:21Z</time>
      </trkpt>
      <trkpt lat="47.29398" lon="-1.08769">
        <ele>59</ele>
        <time>2024-05-15T08:07:30Z</time>
      </trkpt>
      <trkpt lat="47.29421" lon="-1.08773">
        <ele>60</ele>
        <time>2024-05-15T08:08:01Z</time>
      </trkpt>
      <trkpt lat="47.29458" lon="-1.08774">
        <ele>60</ele>
        <time>2024-05-15T08:08:50Z</time>
      </trkpt>
      <trkpt lat="47.29485" lon="-1.08787">
        <ele>61</ele>
        <time>2024-05-15T08:09:28Z</time>
      </trkpt>
      <trkpt lat="47.29497" lon="-1.0879">
        <ele>61</ele>
        <time>2024-05-15T08:09:44Z</time>
      </trkpt>
      <trkpt lat="47.2951" lon="-1.08788">
        <ele>62</ele>
        <time>2024-05-15T08:10:02Z</time>
      </trkpt>
      <trkpt lat="47.29563" lon="-1.08771">
        <ele>66</ele>
        <time>2024-05-15T08:11:14Z</time>
      </trkpt>
      <trkpt lat="47.29573" lon="-1.08774">
        <ele>66</ele>
        <time>2024-05-15T08:11:28Z</time>
      </trkpt>
      <trkpt lat="47.2958" lon="-1.0878">
        <ele>67</ele>
        <time>2024-05-15T08:11:38Z</time>
      </trkpt>
      <trkpt lat="47.29579" lon="-1.08783">
        <ele>67</ele>
        <time>2024-05-15T08:11:41Z</time>
      </trkpt>
      <trkpt lat="47.29581" lon="-1.08778">
        <ele>67</ele>
        <time>2024-05-15T08:11:47Z</time>
      </trkpt>
      <trkpt lat="47.2959" lon="-1.0878">
        <ele>68</ele>
        <time>2024-05-15T08:11:59Z</time>
      </trkpt>
      <trkpt lat="47.29636" lon="-1.08802">
        <ele>71</ele>
        <time>2024-05-15T08:13:03Z</time>
      </trkpt>
      <trkpt lat="47.29649" lon="-1.0882">
        <ele>72</ele>
        <time>2024-05-15T08:13:27Z</time>
      </trkpt>
      <trkpt lat="47.29663" lon="-1.08825">
        <ele>73</ele>
        <time>2024-05-15T08:13:46Z</time>
      </trkpt>
      <trkpt lat="47.29686" lon="-1.08827">
        <ele>73</ele>
        <time>2024-05-15T08:14:17Z</time>
      </trkpt>
      <trkpt lat="47.29762" lon="-1.08814">
        <ele>75</ele>
        <time>2024-05-15T08:15:59Z</time>
      </trkpt>
      <trkpt lat="47.29789" lon="-1.08801">
        <ele>75</ele>
        <time>2024-05-15T08:16:37Z</time>
      </trkpt>
      <trkpt lat="47.29814" lon="-1.08793">
        <ele>74</ele>
        <time>2024-05-15T08:17:11Z</time>
      </trkpt>
      <trkpt lat="47.29847" lon="-1.08792">
        <ele>74</ele>
        <time>2024-05-15T08:17:55Z</time>
      </trkpt>
      <trkpt lat="47.29884" lon="-1.08784">
        <ele>75</ele>
        <time>2024-05-15T08:18:45Z</time>
      </trkpt>
      <trkpt lat="47.29926" lon="-1.08763">
        <ele>76</ele>
        <time>2024-05-15T08:19:44Z</time>
      </trkpt>
      <trkpt lat="47.29949" lon="-1.08755">
        <ele>77</ele>
        <time>2024-05-15T08:20:16Z</time>
      </trkpt>
      <trkpt lat="47.29985" lon="-1.08751">
        <ele>77</ele>
        <time>2024-05-15T08:21:04Z</time>
      </trkpt>
      <trkpt lat="47.30023" lon="-1.08758">
        <ele>76</ele>
        <time>2024-05-15T08:21:55Z</time>
      </trkpt>
      <trkpt lat="47.30034" lon="-1.08752">
        <ele>76</ele>
        <time>2024-05-15T08:22:11Z</time>
      </trkpt>
      <trkpt lat="47.30041" lon="-1.0874">
        <ele>76</ele>
        <time>2024-05-15T08:22:25Z</time>
      </trkpt>
      <trkpt lat="47.30032" lon="-1.08705">
        <ele>78</ele>
        <time>2024-05-15T08:22:59Z</time>
      </trkpt>
      <trkpt lat="47.30027" lon="-1.08649">
        <ele>79</ele>
        <time>2024-05-15T08:23:50Z</time>
      </trkpt>
      <trkpt lat="47.30006" lon="-1.08517">
        <ele>80</ele>
        <time>2024-05-15T08:25:53Z</time>
      </trkpt>
      <trkpt lat="47.29999" lon="-1.08458">
        <ele>80</ele>
        <time>2024-05-15T08:26:47Z</time>
      </trkpt>
      <trkpt lat="47.29996" lon="-1.08352">
        <ele>79</ele>
        <time>2024-05-15T08:28:23Z</time>
      </trkpt>
      <trkpt lat="47.29998" lon="-1.08192">
        <ele>76</ele>
        <time>2024-05-15T08:30:48Z</time>
      </trkpt>
      <trkpt lat="47.30012" lon="-1.08158">
        <ele>75</ele>
        <time>2024-05-15T08:31:24Z</time>
      </trkpt>
      <trkpt lat="47.30018" lon="-1.08121">
        <ele>75</ele>
        <time>2024-05-15T08:31:58Z</time>
      </trkpt>
      <trkpt lat="47.30023" lon="-1.08108">
        <ele>76</ele>
        <time>2024-05-15T08:32:12Z</time>
      </trkpt>
      <trkpt lat="47.30019" lon="-1.08073">
        <ele>75</ele>
        <time>2024-05-15T08:32:44Z</time>
      </trkpt>
      <trkpt lat="47.30027" lon="-1.08039">
        <ele>75</ele>
        <time>2024-05-15T08:33:17Z</time>
      </trkpt>
      <trkpt lat="47.30036" lon="-1.08026">
        <ele>75</ele>
        <time>2024-05-15T08:33:33Z</time>
      </trkpt>
      <trkpt lat="47.3004" lon="-1.08024">
        <ele>76</ele>
        <time>2024-05-15T08:33:39Z</time>
      </trkpt>
      <trkpt lat="47.30062" lon="-1.08037">
        <ele>76</ele>
        <time>2024-05-15T08:34:11Z</time>
      </trkpt>
      <trkpt lat="47.30088" lon="-1.08037">
        <ele>77</ele>
        <time>2024-05-15T08:34:45Z</time>
      </trkpt>
      <trkpt lat="47.30089" lon="-1.08031">
        <ele>77</ele>
        <time>2024-05-15T08:34:51Z</time>
      </trkpt>
      <trkpt lat="47.3009" lon="-1.08038">
        <ele>77</ele>
        <time>2024-05-15T08:34:57Z</time>
      </trkpt>
      <trkpt lat="47.30091" lon="-1.08033">
        <ele>77</ele>
        <time>2024-05-15T08:35:02Z</time>
      </trkpt>
      <trkpt lat="47.301" lon="-1.08033">
        <ele>77</ele>
        <time>2024-05-15T08:35:14Z</time>
      </trkpt>
      <trkpt lat="47.30104" lon="-1.08004">
        <ele>77</ele>
        <time>2024-05-15T08:35:41Z</time>
      </trkpt>
      <trkpt lat="47.30101" lon="-1.0799">
        <ele>77</ele>
        <time>2024-05-15T08:35:54Z</time>
      </trkpt>
      <trkpt lat="47.30093" lon="-1.0798">
        <ele>77</ele>
        <time>2024-05-15T08:36:08Z</time>
      </trkpt>
      <trkpt lat="47.30073" lon="-1.07982">
        <ele>77</ele>
        <time>2024-05-15T08:36:35Z</time>
      </trkpt>
      <trkpt lat="47.30056" lon="-1.07987">
        <ele>76</ele>
        <time>2024-05-15T08:36:58Z</time>
      </trkpt>
      <trkpt lat="47.30049" lon="-1.08005">
        <ele>76</ele>
        <time>2024-05-15T08:37:17Z</time>
      </trkpt>
      <trkpt lat="47.30041" lon="-1.08015">
        <ele>76</ele>
        <time>2024-05-15T08:37:31Z</time>
      </trkpt>
      <trkpt lat="47.30041" lon="-1.07956">
        <ele>76</ele>
        <time>2024-05-15T08:38:24Z</time>
      </trkpt>
      <trkpt lat="47.30039" lon="-1.07938">
        <ele>76</ele>
        <time>2024-05-15T08:38:41Z</time>
      </trkpt>
      <trkpt lat="47.30035" lon="-1.07933">
        <ele>76</ele>
        <time>2024-05-15T08:38:48Z</time>
      </trkpt>
      <trkpt lat="47.30023" lon="-1.07937">
        <ele>75</ele>
        <time>2024-05-15T08:39:04Z</time>
      </trkpt>
      <trkpt lat="47.29999" lon="-1.07955">
        <ele>74</ele>
        <time>2024-05-15T08:39:40Z</time>
      </trkpt>
      <trkpt lat="47.29962" lon="-1.07974">
        <ele>73</ele>
        <time>2024-05-15T08:40:32Z</time>
      </trkpt>
      <trkpt lat="47.29948" lon="-1.07975">
        <ele>72</ele>
        <time>2024-05-15T08:40:51Z</time>
      </trkpt>
      <trkpt lat="47.29935" lon="-1.07972">
        <ele>72</ele>
        <time>2024-05-15T08:41:09Z</time>
      </trkpt>
      <trkpt lat="47.29929" lon="-1.07878">
        <ele>72</ele>
        <time>2024-05-15T08:42:34Z</time>
      </trkpt>
      <trkpt lat="47.29929" lon="-1.07837">
        <ele>73</ele>
        <time>2024-05-15T08:43:11Z</time>
      </trkpt>
      <trkpt lat="47.29935" lon="-1.07801">
        <ele>74</ele>
        <time>2024-05-15T08:43:45Z</time>
      </trkpt>
      <trkpt lat="47.29938" lon="-1.07763">
        <ele>74</ele>
        <time>2024-05-15T08:44:19Z</time>
      </trkpt>
      <trkpt lat="47.29954" lon="-1.07688">
        <ele>73</ele>
        <time>2024-05-15T08:45:31Z</time>
      </trkpt>
      <trkpt lat="47.29957" lon="-1.07654">
        <ele>72</ele>
        <time>2024-05-15T08:46:02Z</time>
      </trkpt>
      <trkpt lat="47.29957" lon="-1.07634">
        <ele>71</ele>
        <time>2024-05-15T08:46:20Z</time>
      </trkpt>
      <trkpt lat="47.29954" lon="-1.07615">
        <ele>70</ele>
        <time>2024-05-15T08:46:37Z</time>
      </trkpt>
      <trkpt lat="47.29945" lon="-1.07596">
        <ele>68</ele>
        <time>2024-05-15T08:46:58Z</time>
      </trkpt>
      <trkpt lat="47.29941" lon="-1.0758">
        <ele>67</ele>
        <time>2024-05-15T08:47:14Z</time>
      </trkpt>
      <trkpt lat="47.29918" lon="-1.07536">
        <ele>62</ele>
        <time>2024-05-15T08:48:04Z</time>
      </trkpt>
      <trkpt lat="47.2989" lon="-1.07474">
        <ele>57</ele>
        <time>2024-05-15T08:49:11Z</time>
      </trkpt>
      <trkpt lat="47.29873" lon="-1.07445">
        <ele>54</ele>
        <time>2024-05-15T08:49:46Z</time>
      </trkpt>
      <trkpt lat="47.29856" lon="-1.07426">
        <ele>53</ele>
        <time>2024-05-15T08:50:15Z</time>
      </trkpt>
      <trkpt lat="47.29834" lon="-1.07409">
        <ele>51</ele>
        <time>2024-05-15T08:50:48Z</time>
      </trkpt>
      <trkpt lat="47.29827" lon="-1.07396">
        <ele>50</ele>
        <time>2024-05-15T08:51:03Z</time>
      </trkpt>
      <trkpt lat="47.29817" lon="-1.07362">
        <ele>47</ele>
        <time>2024-05-15T08:51:36Z</time>
      </trkpt>
      <trkpt lat="47.29806" lon="-1.07337">
        <ele>45</ele>
        <time>2024-05-15T08:52:03Z</time>
      </trkpt>
      <trkpt lat="47.298" lon="-1.07329">
        <ele>45</ele>
        <time>2024-05-15T08:52:14Z</time>
      </trkpt>
      <trkpt lat="47.29788" lon="-1.07296">
        <ele>44</ele>
        <time>2024-05-15T08:52:48Z</time>
      </trkpt>
      <trkpt lat="47.2976" lon="-1.07163">
        <ele>41</ele>
        <time>2024-05-15T08:54:54Z</time>
      </trkpt>
      <trkpt lat="47.29751" lon="-1.07132">
        <ele>40</ele>
        <time>2024-05-15T08:55:24Z</time>
      </trkpt>
      <trkpt lat="47.2975" lon="-1.07115">
        <ele>40</ele>
        <time>2024-05-15T08:55:40Z</time>
      </trkpt>
      <trkpt lat="47.29735" lon="-1.07035">
        <ele>35</ele>
        <time>2024-05-15T08:56:55Z</time>
      </trkpt>
      <trkpt lat="47.29725" lon="-1.06999">
        <ele>32</ele>
        <time>2024-05-15T08:57:30Z</time>
      </trkpt>
      <trkpt lat="47.29724" lon="-1.0698">
        <ele>31</ele>
        <time>2024-05-15T08:57:47Z</time>
      </trkpt>
      <trkpt lat="47.29714" lon="-1.06942">
        <ele>28</ele>
        <time>2024-05-15T08:58:24Z</time>
      </trkpt>
      <trkpt lat="47.29701" lon="-1.06914">
        <ele>26</ele>
        <time>2024-05-15T08:58:55Z</time>
      </trkpt>
      <trkpt lat="47.2967" lon="-1.0689">
        <ele>24</ele>
        <time>2024-05-15T08:59:42Z</time>
      </trkpt>
      <trkpt lat="47.29637" lon="-1.06874">
        <ele>25</ele>
        <time>2024-05-15T09:00:28Z</time>
      </trkpt>
      <trkpt lat="47.29626" lon="-1.06874">
        <ele>26</ele>
        <time>2024-05-15T09:00:43Z</time>
      </trkpt>
      <trkpt lat="47.29613" lon="-1.06864">
        <ele>27</ele>
        <time>2024-05-15T09:01:02Z</time>
      </trkpt>
      <trkpt lat="47.29604" lon="-1.06847">
        <ele>28</ele>
        <time>2024-05-15T09:01:22Z</time>
      </trkpt>
      <trkpt lat="47.29595" lon="-1.06798">
        <ele>32</ele>
        <time>2024-05-15T09:02:08Z</time>
      </trkpt>
      <trkpt lat="47.29581" lon="-1.06748">
        <ele>36</ele>
        <time>2024-05-15T09:02:57Z</time>
      </trkpt>
      <trkpt lat="47.29569" lon="-1.06723">
        <ele>37</ele>
        <time>2024-05-15T09:03:25Z</time>
      </trkpt>
      <trkpt lat="47.2956" lon="-1.06712">
        <ele>37</ele>
        <time>2024-05-15T09:03:40Z</time>
      </trkpt>
      <trkpt lat="47.29548" lon="-1.06707">
        <ele>37</ele>
        <time>2024-05-15T09:03:57Z</time>
      </trkpt>
      <trkpt lat="47.29538" lon="-1.0671">
        <ele>38</ele>
        <time>2024-05-15T09:04:10Z</time>
      </trkpt>
      <trkpt lat="47.29519" lon="-1.06723">
        <ele>40</ele>
        <time>2024-05-15T09:04:38Z</time>
      </trkpt>
      <trkpt lat="47.29498" lon="-1.06743">
        <ele>43</ele>
        <time>2024-05-15T09:05:12Z</time>
      </trkpt>
      <trkpt lat="47.29481" lon="-1.06768">
        <ele>44</ele>
        <time>2024-05-15T09:05:44Z</time>
      </trkpt>
      <trkpt lat="47.29461" lon="-1.06817">
        <ele>45</ele>
        <time>2024-05-15T09:06:36Z</time>
      </trkpt>
      <trkpt lat="47.29444" lon="-1.06845">
        <ele>46</ele>
        <time>2024-05-15T09:07:10Z</time>
      </trkpt>
      <trkpt lat="47.29411" lon="-1.06861">
        <ele>48</ele>
        <time>2024-05-15T09:07:56Z</time>
      </trkpt>
      <trkpt lat="47.29401" lon="-1.06871">
        <ele>48</ele>
        <time>2024-05-15T09:08:12Z</time>
      </trkpt>
      <trkpt lat="47.29358" lon="-1.07006">
        <ele>50</ele>
        <time>2024-05-15T09:10:27Z</time>
      </trkpt>
      <trkpt lat="47.29341" lon="-1.07075">
        <ele>49</ele>
        <time>2024-05-15T09:11:33Z</time>
      </trkpt>
      <trkpt lat="47.2934" lon="-1.07096">
        <ele>49</ele>
        <time>2024-05-15T09:11:53Z</time>
      </trkpt>
      <trkpt lat="47.29321" lon="-1.07182">
        <ele>50</ele>
        <time>2024-05-15T09:13:14Z</time>
      </trkpt>
      <trkpt lat="47.29305" lon="-1.07243">
        <ele>50</ele>
        <time>2024-05-15T09:14:14Z</time>
      </trkpt>
      <trkpt lat="47.29294" lon="-1.07275">
        <ele>51</ele>
        <time>2024-05-15T09:14:46Z</time>
      </trkpt>
      <trkpt lat="47.29284" lon="-1.07279">
        <ele>51</ele>
        <time>2024-05-15T09:15:00Z</time>
      </trkpt>
      <trkpt lat="47.29262" lon="-1.07275">
        <ele>53</ele>
        <time>2024-05-15T09:15:29Z</time>
      </trkpt>
      <trkpt lat="47.29241" lon="-1.07266">
        <ele>55</ele>
        <time>2024-05-15T09:15:59Z</time>
      </trkpt>
      <trkpt lat="47.29184" lon="-1.07249">
        <ele>61</ele>
        <time>2024-05-15T09:17:16Z</time>
      </trkpt>
      <trkpt lat="47.2912" lon="-1.07221">
        <ele>65</ele>
        <time>2024-05-15T09:18:45Z</time>
      </trkpt>
      <trkpt lat="47.29097" lon="-1.07219">
        <ele>66</ele>
        <time>2024-05-15T09:19:16Z</time>
      </trkpt>
      <trkpt lat="47.2907" lon="-1.07221">
        <ele>67</ele>
        <time>2024-05-15T09:19:52Z</time>
      </trkpt>
      <trkpt lat="47.29059" lon="-1.07226">
        <ele>67</ele>
        <time>2024-05-15T09:20:07Z</time>
      </trkpt>
      <trkpt lat="47.29026" lon="-1.07258">
        <ele>67</ele>
        <time>2024-05-15T09:21:00Z</time>
      </trkpt>
      <trkpt lat="47.28983" lon="-1.07293">
        <ele>68</ele>
        <time>2024-05-15T09:22:06Z</time>
      </trkpt>
      <trkpt lat="47.2897" lon="-1.07301">
        <ele>68</ele>
        <time>2024-05-15T09:22:25Z</time>
      </trkpt>
      <trkpt lat="47.28897" lon="-1.07326">
        <ele>66</ele>
        <time>2024-05-15T09:24:05Z</time>
      </trkpt>
      <trkpt lat="47.28862" lon="-1.0733">
        <ele>63</ele>
        <time>2024-05-15T09:24:51Z</time>
      </trkpt>
      <trkpt lat="47.28818" lon="-1.0734">
        <ele>61</ele>
        <time>2024-05-15T09:25:51Z</time>
      </trkpt>
      <trkpt lat="47.28806" lon="-1.07345">
        <ele>62</ele>
        <time>2024-05-15T09:26:07Z</time>
      </trkpt>
      <trkpt lat="47.28784" lon="-1.0736">
        <ele>63</ele>
        <time>2024-05-15T09:26:40Z</time>
      </trkpt>
      <trkpt lat="47.28764" lon="-1.07379">
        <ele>64</ele>
        <time>2024-05-15T09:27:12Z</time>
      </trkpt>
      <trkpt lat="47.28752" lon="-1.07385">
        <ele>64</ele>
        <time>2024-05-15T09:27:28Z</time>
      </trkpt>
      <trkpt lat="47.28741" lon="-1.07395">
        <ele>65</ele>
        <time>2024-05-15T09:27:46Z</time>
      </trkpt>
      <trkpt lat="47.28722" lon="-1.07423">
        <ele>66</ele>
        <time>2024-05-15T09:28:22Z</time>
      </trkpt>
      <trkpt lat="47.28685" lon="-1.07492">
        <ele>70</ele>
        <time>2024-05-15T09:29:41Z</time>
      </trkpt>
      <trkpt lat="47.28677" lon="-1.07502">
        <ele>70</ele>
        <time>2024-05-15T09:29:55Z</time>
      </trkpt>
      <trkpt lat="47.28663" lon="-1.07509">
        <ele>70</ele>
        <time>2024-05-15T09:30:15Z</time>
      </trkpt>
      <trkpt lat="47.28654" lon="-1.07523">
        <ele>71</ele>
        <time>2024-05-15T09:30:32Z</time>
      </trkpt>
      <trkpt lat="47.28641" lon="-1.07558">
        <ele>72</ele>
        <time>2024-05-15T09:31:08Z</time>
      </trkpt>
      <trkpt lat="47.28631" lon="-1.07573">
        <ele>73</ele>
        <time>2024-05-15T09:31:28Z</time>
      </trkpt>
      <trkpt lat="47.28612" lon="-1.07594">
        <ele>74</ele>
        <time>2024-05-15T09:31:59Z</time>
      </trkpt>
      <trkpt lat="47.28591" lon="-1.07611">
        <ele>75</ele>
        <time>2024-05-15T09:32:31Z</time>
      </trkpt>
      <trkpt lat="47.28546" lon="-1.07629">
        <ele>78</ele>
        <time>2024-05-15T09:33:33Z</time>
      </trkpt>
      <trkpt lat="47.28506" lon="-1.07632">
        <ele>80</ele>
        <time>2024-05-15T09:34:27Z</time>
      </trkpt>
      <trkpt lat="47.28487" lon="-1.07563">
        <ele>80</ele>
        <time>2024-05-15T09:35:34Z</time>
      </trkpt>
      <trkpt lat="47.28446" lon="-1.07462">
        <ele>79</ele>
        <time>2024-05-15T09:37:21Z</time>
      </trkpt>
      <trkpt lat="47.28442" lon="-1.07443">
        <ele>78</ele>
        <time>2024-05-15T09:37:39Z</time>
      </trkpt>
      <trkpt lat="47.28436" lon="-1.07385">
        <ele>76</ele>
        <time>2024-05-15T09:38:32Z</time>
      </trkpt>
      <trkpt lat="47.28448" lon="-1.07271">
        <ele>71</ele>
        <time>2024-05-15T09:40:16Z</time>
      </trkpt>
      <trkpt lat="47.28444" lon="-1.07254">
        <ele>71</ele>
        <time>2024-05-15T09:40:33Z</time>
      </trkpt>
      <trkpt lat="47.28425" lon="-1.07234">
        <ele>72</ele>
        <time>2024-05-15T09:41:04Z</time>
      </trkpt>
      <trkpt lat="47.284" lon="-1.07223">
        <ele>72</ele>
        <time>2024-05-15T09:41:39Z</time>
      </trkpt>
      <trkpt lat="47.28376" lon="-1.07215">
        <ele>73</ele>
        <time>2024-05-15T09:42:11Z</time>
      </trkpt>
      <trkpt lat="47.2837" lon="-1.07215">
        <ele>73</ele>
        <time>2024-05-15T09:42:19Z</time>
      </trkpt>
      <trkpt lat="47.28375" lon="-1.07198">
        <ele>73</ele>
        <time>2024-05-15T09:42:36Z</time>
      </trkpt>
      <trkpt lat="47.28381" lon="-1.07106">
        <ele>73</ele>
        <time>2024-05-15T09:44:00Z</time>
      </trkpt>
      <trkpt lat="47.28383" lon="-1.07033">
        <ele>72</ele>
        <time>2024-05-15T09:45:06Z</time>
      </trkpt>
      <trkpt lat="47.28381" lon="-1.07012">
        <ele>72</ele>
        <time>2024-05-15T09:45:25Z</time>
      </trkpt>
      <trkpt lat="47.2837" lon="-1.06978">
        <ele>72</ele>
        <time>2024-05-15T09:45:59Z</time>
      </trkpt>
      <trkpt lat="47.28354" lon="-1.0695">
        <ele>73</ele>
        <time>2024-05-15T09:46:32Z</time>
      </trkpt>
      <trkpt lat="47.28336" lon="-1.06931">
        <ele>74</ele>
        <time>2024-05-15T09:47:02Z</time>
      </trkpt>
      <trkpt lat="47.28323" lon="-1.06933">
        <ele>75</ele>
        <time>2024-05-15T09:47:19Z</time>
      </trkpt>
      <trkpt lat="47.28312" lon="-1.06938">
        <ele>75</ele>
        <time>2024-05-15T09:47:35Z</time>
      </trkpt>
      <trkpt lat="47.28304" lon="-1.06949">
        <ele>76</ele>
        <time>2024-05-15T09:47:49Z</time>
      </trkpt>
      <trkpt lat="47.28268" lon="-1.06976">
        <ele>78</ele>
        <time>2024-05-15T09:48:43Z</time>
      </trkpt>
      <trkpt lat="47.28247" lon="-1.06997">
        <ele>78</ele>
        <time>2024-05-15T09:49:17Z</time>
      </trkpt>
      <trkpt lat="47.28173" lon="-1.0709">
        <ele>82</ele>
        <time>2024-05-15T09:51:27Z</time>
      </trkpt>
      <trkpt lat="47.28134" lon="-1.07133">
        <ele>82</ele>
        <time>2024-05-15T09:52:32Z</time>
      </trkpt>
      <trkpt lat="47.28097" lon="-1.07179">
        <ele>81</ele>
        <time>2024-05-15T09:53:37Z</time>
      </trkpt>
      <trkpt lat="47.28067" lon="-1.07209">
        <ele>82</ele>
        <time>2024-05-15T09:54:25Z</time>
      </trkpt>
      <trkpt lat="47.28043" lon="-1.07226">
        <ele>82</ele>
        <time>2024-05-15T09:55:00Z</time>
      </trkpt>
      <trkpt lat="47.28023" lon="-1.07245">
        <ele>83</ele>
        <time>2024-05-15T09:55:32Z</time>
      </trkpt>
      <trkpt lat="47.2801" lon="-1.0725">
        <ele>83</ele>
        <time>2024-05-15T09:55:50Z</time>
      </trkpt>
      <trkpt lat="47.27954" lon="-1.07289">
        <ele>82</ele>
        <time>2024-05-15T09:57:13Z</time>
      </trkpt>
      <trkpt lat="47.27941" lon="-1.07284">
        <ele>81</ele>
        <time>2024-05-15T09:57:31Z</time>
      </trkpt>
      <trkpt lat="47.27904" lon="-1.07232">
        <ele>80</ele>
        <time>2024-05-15T09:58:39Z</time>
      </trkpt>
      <trkpt lat="47.2789" lon="-1.07201">
        <ele>79</ele>
        <time>2024-05-15T09:59:13Z</time>
      </trkpt>
      <trkpt lat="47.27872" lon="-1.07169">
        <ele>78</ele>
        <time>2024-05-15T09:59:50Z</time>
      </trkpt>
      <trkpt lat="47.27868" lon="-1.07157">
        <ele>78</ele>
        <time>2024-05-15T10:00:02Z</time>
      </trkpt>
      <trkpt lat="47.27809" lon="-1.07056">
        <ele>73</ele>
        <time>2024-05-15T10:02:03Z</time>
      </trkpt>
      <trkpt lat="47.27778" lon="-1.06988">
        <ele>71</ele>
        <time>2024-05-15T10:03:17Z</time>
      </trkpt>
      <trkpt lat="47.2777" lon="-1.06955">
        <ele>70</ele>
        <time>2024-05-15T10:03:49Z</time>
      </trkpt>
      <trkpt lat="47.2777" lon="-1.06939">
        <ele>69</ele>
        <time>2024-05-15T10:04:03Z</time>
      </trkpt>
      <trkpt lat="47.27756" lon="-1.06907">
        <ele>68</ele>
        <time>2024-05-15T10:04:38Z</time>
      </trkpt>
      <trkpt lat="47.27748" lon="-1.06894">
        <ele>67</ele>
        <time>2024-05-15T10:04:54Z</time>
      </trkpt>
      <trkpt lat="47.27733" lon="-1.06885">
        <ele>66</ele>
        <time>2024-05-15T10:05:15Z</time>
      </trkpt>
      <trkpt lat="47.2772" lon="-1.06882">
        <ele>64</ele>
        <time>2024-05-15T10:05:33Z</time>
      </trkpt>
      <trkpt lat="47.27702" lon="-1.06869">
        <ele>62</ele>
        <time>2024-05-15T10:06:00Z</time>
      </trkpt>
      <trkpt lat="47.27692" lon="-1.06858">
        <ele>60</ele>
        <time>2024-05-15T10:06:16Z</time>
      </trkpt>
      <trkpt lat="47.27682" lon="-1.06862">
        <ele>59</ele>
        <time>2024-05-15T10:06:30Z</time>
      </trkpt>
      <trkpt lat="47.27671" lon="-1.06872">
        <ele>59</ele>
        <time>2024-05-15T10:06:47Z</time>
      </trkpt>
      <trkpt lat="47.2766" lon="-1.06878">
        <ele>59</ele>
        <time>2024-05-15T10:07:03Z</time>
      </trkpt>
      <trkpt lat="47.27636" lon="-1.06873">
        <ele>58</ele>
        <time>2024-05-15T10:07:35Z</time>
      </trkpt>
      <trkpt lat="47.27627" lon="-1.06874">
        <ele>58</ele>
        <time>2024-05-15T10:07:48Z</time>
      </trkpt>
      <trkpt lat="47.27626" lon="-1.0689">
        <ele>59</ele>
        <time>2024-05-15T10:08:02Z</time>
      </trkpt>
      <trkpt lat="47.2762" lon="-1.06903">
        <ele>59</ele>
        <time>2024-05-15T10:08:16Z</time>
      </trkpt>
      <trkpt lat="47.2761" lon="-1.06914">
        <ele>60</ele>
        <time>2024-05-15T10:08:33Z</time>
      </trkpt>
      <trkpt lat="47.27597" lon="-1.0692">
        <ele>60</ele>
        <time>2024-05-15T10:08:51Z</time>
      </trkpt>
      <trkpt lat="47.27533" lon="-1.06988">
        <ele>63</ele>
        <time>2024-05-15T10:10:36Z</time>
      </trkpt>
      <trkpt lat="47.27496" lon="-1.07047">
        <ele>63</ele>
        <time>2024-05-15T10:11:49Z</time>
      </trkpt>
      <trkpt lat="47.27474" lon="-1.0707">
        <ele>64</ele>
        <time>2024-05-15T10:12:25Z</time>
      </trkpt>
      <trkpt lat="47.27455" lon="-1.07097">
        <ele>65</ele>
        <time>2024-05-15T10:13:00Z</time>
      </trkpt>
      <trkpt lat="47.27423" lon="-1.07134">
        <ele>66</ele>
        <time>2024-05-15T10:13:55Z</time>
      </trkpt>
      <trkpt lat="47.27425" lon="-1.07117">
        <ele>65</ele>
        <time>2024-05-15T10:14:10Z</time>
      </trkpt>
      <trkpt lat="47.27484" lon="-1.07041">
        <ele>63</ele>
        <time>2024-05-15T10:15:55Z</time>
      </trkpt>
      <trkpt lat="47.27511" lon="-1.07001">
        <ele>62</ele>
        <time>2024-05-15T10:16:46Z</time>
      </trkpt>
      <trkpt lat="47.27511" lon="-1.06993">
        <ele>62</ele>
        <time>2024-05-15T10:16:53Z</time>
      </trkpt>
      <trkpt lat="47.27546" lon="-1.06953">
        <ele>63</ele>
        <time>2024-05-15T10:17:52Z</time>
      </trkpt>
      <trkpt lat="47.27591" lon="-1.0691">
        <ele>59</ele>
        <time>2024-05-15T10:19:04Z</time>
      </trkpt>
      <trkpt lat="47.27612" lon="-1.06894">
        <ele>59</ele>
        <time>2024-05-15T10:19:35Z</time>
      </trkpt>
      <trkpt lat="47.2762" lon="-1.06881">
        <ele>59</ele>
        <time>2024-05-15T10:19:51Z</time>
      </trkpt>
      <trkpt lat="47.27616" lon="-1.0687">
        <ele>58</ele>
        <time>2024-05-15T10:20:03Z</time>
      </trkpt>
      <trkpt lat="47.27605" lon="-1.06865">
        <ele>58</ele>
        <time>2024-05-15T10:20:18Z</time>
      </trkpt>
      <trkpt lat="47.27597" lon="-1.06857">
        <ele>58</ele>
        <time>2024-05-15T10:20:31Z</time>
      </trkpt>
      <trkpt lat="47.27593" lon="-1.06843">
        <ele>58</ele>
        <time>2024-05-15T10:20:45Z</time>
      </trkpt>
      <trkpt lat="47.27577" lon="-1.0682">
        <ele>59</ele>
        <time>2024-05-15T10:21:14Z</time>
      </trkpt>
      <trkpt lat="47.27557" lon="-1.06805">
        <ele>62</ele>
        <time>2024-05-15T10:21:44Z</time>
      </trkpt>
      <trkpt lat="47.27531" lon="-1.06779">
        <ele>65</ele>
        <time>2024-05-15T10:22:26Z</time>
      </trkpt>
      <trkpt lat="47.27523" lon="-1.06765">
        <ele>66</ele>
        <time>2024-05-15T10:22:43Z</time>
      </trkpt>
      <trkpt lat="47.27507" lon="-1.06748">
        <ele>68</ele>
        <time>2024-05-15T10:23:09Z</time>
      </trkpt>
      <trkpt lat="47.27466" lon="-1.06676">
        <ele>72</ele>
        <time>2024-05-15T10:24:34Z</time>
      </trkpt>
      <trkpt lat="47.27453" lon="-1.06647">
        <ele>73</ele>
        <time>2024-05-15T10:25:06Z</time>
      </trkpt>
      <trkpt lat="47.2744" lon="-1.06602">
        <ele>71</ele>
        <time>2024-05-15T10:25:50Z</time>
      </trkpt>
      <trkpt lat="47.27429" lon="-1.06574">
        <ele>71</ele>
        <time>2024-05-15T10:26:19Z</time>
      </trkpt>
      <trkpt lat="47.27422" lon="-1.06564">
        <ele>71</ele>
        <time>2024-05-15T10:26:32Z</time>
      </trkpt>
      <trkpt lat="47.27402" lon="-1.06513">
        <ele>73</ele>
        <time>2024-05-15T10:27:26Z</time>
      </trkpt>
      <trkpt lat="47.27394" lon="-1.06448">
        <ele>74</ele>
        <time>2024-05-15T10:28:25Z</time>
      </trkpt>
      <trkpt lat="47.27407" lon="-1.06401">
        <ele>75</ele>
        <time>2024-05-15T10:29:11Z</time>
      </trkpt>
      <trkpt lat="47.27409" lon="-1.06382">
        <ele>75</ele>
        <time>2024-05-15T10:29:29Z</time>
      </trkpt>
      <trkpt lat="47.27406" lon="-1.06327">
        <ele>76</ele>
        <time>2024-05-15T10:30:19Z</time>
      </trkpt>
      <trkpt lat="47.27389" lon="-1.06282">
        <ele>76</ele>
        <time>2024-05-15T10:31:05Z</time>
      </trkpt>
      <trkpt lat="47.27365" lon="-1.06231">
        <ele>74</ele>
        <time>2024-05-15T10:32:02Z</time>
      </trkpt>
      <trkpt lat="47.27352" lon="-1.06207">
        <ele>73</ele>
        <time>2024-05-15T10:32:29Z</time>
      </trkpt>
      <trkpt lat="47.27276" lon="-1.06128">
        <ele>69</ele>
        <time>2024-05-15T10:34:34Z</time>
      </trkpt>
      <trkpt lat="47.27259" lon="-1.06105">
        <ele>69</ele>
        <time>2024-05-15T10:35:04Z</time>
      </trkpt>
      <trkpt lat="47.27253" lon="-1.06091">
        <ele>69</ele>
        <time>2024-05-15T10:35:19Z</time>
      </trkpt>
      <trkpt lat="47.27238" lon="-1.06035">
        <ele>67</ele>
        <time>2024-05-15T10:36:14Z</time>
      </trkpt>
      <trkpt lat="47.27204" lon="-1.05962">
        <ele>63</ele>
        <time>2024-05-15T10:37:34Z</time>
      </trkpt>
      <trkpt lat="47.27166" lon="-1.05918">
        <ele>62</ele>
        <time>2024-05-15T10:38:39Z</time>
      </trkpt>
      <trkpt lat="47.27126" lon="-1.05882">
        <ele>66</ele>
        <time>2024-05-15T10:39:41Z</time>
      </trkpt>
      <trkpt lat="47.27106" lon="-1.05869">
        <ele>67</ele>
        <time>2024-05-15T10:40:10Z</time>
      </trkpt>
      <trkpt lat="47.27078" lon="-1.05841">
        <ele>70</ele>
        <time>2024-05-15T10:40:55Z</time>
      </trkpt>
      <trkpt lat="47.27065" lon="-1.05835">
        <ele>71</ele>
        <time>2024-05-15T10:41:14Z</time>
      </trkpt>
      <trkpt lat="47.27033" lon="-1.05796">
        <ele>72</ele>
        <time>2024-05-15T10:42:09Z</time>
      </trkpt>
      <trkpt lat="47.27017" lon="-1.05772">
        <ele>72</ele>
        <time>2024-05-15T10:42:39Z</time>
      </trkpt>
      <trkpt lat="47.26994" lon="-1.05732">
        <ele>71</ele>
        <time>2024-05-15T10:43:27Z</time>
      </trkpt>
      <trkpt lat="47.26992" lon="-1.05716">
        <ele>71</ele>
        <time>2024-05-15T10:43:42Z</time>
      </trkpt>
      <trkpt lat="47.2698" lon="-1.0569">
        <ele>70</ele>
        <time>2024-05-15T10:44:10Z</time>
      </trkpt>
      <trkpt lat="47.26959" lon="-1.05628">
        <ele>68</ele>
        <time>2024-05-15T10:45:13Z</time>
      </trkpt>
      <trkpt lat="47.26936" lon="-1.05586">
        <ele>67</ele>
        <time>2024-05-15T10:46:02Z</time>
      </trkpt>
      <trkpt lat="47.26919" lon="-1.05544">
        <ele>65</ele>
        <time>2024-05-15T10:46:46Z</time>
      </trkpt>
      <trkpt lat="47.26906" lon="-1.05499">
        <ele>64</ele>
        <time>2024-05-15T10:47:30Z</time>
      </trkpt>
      <trkpt lat="47.2691" lon="-1.05483">
        <ele>63</ele>
        <time>2024-05-15T10:47:46Z</time>
      </trkpt>
      <trkpt lat="47.26928" lon="-1.05461">
        <ele>61</ele>
        <time>2024-05-15T10:48:17Z</time>
      </trkpt>
      <trkpt lat="47.26949" lon="-1.05444">
        <ele>60</ele>
        <time>2024-05-15T10:48:49Z</time>
      </trkpt>
      <trkpt lat="47.26986" lon="-1.05402">
        <ele>57</ele>
        <time>2024-05-15T10:49:51Z</time>
      </trkpt>
      <trkpt lat="47.26981" lon="-1.05372">
        <ele>56</ele>
        <time>2024-05-15T10:50:19Z</time>
      </trkpt>
      <trkpt lat="47.26969" lon="-1.05341">
        <ele>56</ele>
        <time>2024-05-15T10:50:52Z</time>
      </trkpt>
      <trkpt lat="47.26956" lon="-1.05295">
        <ele>55</ele>
        <time>2024-05-15T10:51:37Z</time>
      </trkpt>
      <trkpt lat="47.26949" lon="-1.05285">
        <ele>54</ele>
        <time>2024-05-15T10:51:50Z</time>
      </trkpt>
      <trkpt lat="47.26936" lon="-1.05216">
        <ele>51</ele>
        <time>2024-05-15T10:52:55Z</time>
      </trkpt>
      <trkpt lat="47.26936" lon="-1.05187">
        <ele>49</ele>
        <time>2024-05-15T10:53:21Z</time>
      </trkpt>
      <trkpt lat="47.26939" lon="-1.0517">
        <ele>48</ele>
        <time>2024-05-15T10:53:37Z</time>
      </trkpt>
      <trkpt lat="47.26934" lon="-1.05144">
        <ele>46</ele>
        <time>2024-05-15T10:54:01Z</time>
      </trkpt>
      <trkpt lat="47.26929" lon="-1.05139">
        <ele>46</ele>
        <time>2024-05-15T10:54:09Z</time>
      </trkpt>
      <trkpt lat="47.26931" lon="-1.05129">
        <ele>45</ele>
        <time>2024-05-15T10:54:19Z</time>
      </trkpt>
      <trkpt lat="47.26929" lon="-1.05118">
        <ele>45</ele>
        <time>2024-05-15T10:54:29Z</time>
      </trkpt>
      <trkpt lat="47.26941" lon="-1.05079">
        <ele>40</ele>
        <time>2024-05-15T10:55:08Z</time>
      </trkpt>
      <trkpt lat="47.26944" lon="-1.05041">
        <ele>36</ele>
        <time>2024-05-15T10:55:42Z</time>
      </trkpt>
      <trkpt lat="47.26941" lon="-1.05011">
        <ele>34</ele>
        <time>2024-05-15T10:56:10Z</time>
      </trkpt>
      <trkpt lat="47.26945" lon="-1.04978">
        <ele>31</ele>
        <time>2024-05-15T10:56:40Z</time>
      </trkpt>
      <trkpt lat="47.26938" lon="-1.04965">
        <ele>32</ele>
        <time>2024-05-15T10:56:55Z</time>
      </trkpt>
      <trkpt lat="47.26931" lon="-1.04964">
        <ele>33</ele>
        <time>2024-05-15T10:57:05Z</time>
      </trkpt>
      <trkpt lat="47.26923" lon="-1.04958">
        <ele>33</ele>
        <time>2024-05-15T10:57:17Z</time>
      </trkpt>
      <trkpt lat="47.26887" lon="-1.04944">
        <ele>38</ele>
        <time>2024-05-15T10:58:06Z</time>
      </trkpt>
      <trkpt lat="47.2684" lon="-1.04899">
        <ele>41</ele>
        <time>2024-05-15T10:59:21Z</time>
      </trkpt>
      <trkpt lat="47.26804" lon="-1.04858">
        <ele>41</ele>
        <time>2024-05-15T11:00:22Z</time>
      </trkpt>
      <trkpt lat="47.26781" lon="-1.04845">
        <ele>42</ele>
        <time>2024-05-15T11:00:55Z</time>
      </trkpt>
      <trkpt lat="47.26771" lon="-1.04848">
        <ele>44</ele>
        <time>2024-05-15T11:01:08Z</time>
      </trkpt>
      <trkpt lat="47.26739" lon="-1.04842">
        <ele>46</ele>
        <time>2024-05-15T11:01:51Z</time>
      </trkpt>
      <trkpt lat="47.26693" lon="-1.04818">
        <ele>44</ele>
        <time>2024-05-15T11:02:56Z</time>
      </trkpt>
      <trkpt lat="47.26684" lon="-1.0481">
        <ele>42</ele>
        <time>2024-05-15T11:03:10Z</time>
      </trkpt>
      <trkpt lat="47.26673" lon="-1.04805">
        <ele>42</ele>
        <time>2024-05-15T11:03:26Z</time>
      </trkpt>
      <trkpt lat="47.26668" lon="-1.04799">
        <ele>41</ele>
        <time>2024-05-15T11:03:34Z</time>
      </trkpt>
      <trkpt lat="47.26675" lon="-1.04791">
        <ele>39</ele>
        <time>2024-05-15T11:03:46Z</time>
      </trkpt>
      <trkpt lat="47.26673" lon="-1.04784">
        <ele>38</ele>
        <time>2024-05-15T11:03:53Z</time>
      </trkpt>
      <trkpt lat="47.26675" lon="-1.04777">
        <ele>37</ele>
        <time>2024-05-15T11:04:00Z</time>
      </trkpt>
      <trkpt lat="47.26667" lon="-1.0475">
        <ele>32</ele>
        <time>2024-05-15T11:04:27Z</time>
      </trkpt>
      <trkpt lat="47.26669" lon="-1.04734">
        <ele>31</ele>
        <time>2024-05-15T11:04:41Z</time>
      </trkpt>
      <trkpt lat="47.26666" lon="-1.0474">
        <ele>31</ele>
        <time>2024-05-15T11:04:48Z</time>
      </trkpt>
      <trkpt lat="47.26669" lon="-1.04745">
        <ele>32</ele>
        <time>2024-05-15T11:04:54Z</time>
      </trkpt>
      <trkpt lat="47.26682" lon="-1.04749">
        <ele>32</ele>
        <time>2024-05-15T11:05:12Z</time>
      </trkpt>
      <trkpt lat="47.26686" lon="-1.04754">
        <ele>32</ele>
        <time>2024-05-15T11:05:19Z</time>
      </trkpt>
      <trkpt lat="47.26686" lon="-1.04745">
        <ele>31</ele>
        <time>2024-05-15T11:05:27Z</time>
      </trkpt>
      <trkpt lat="47.26686" lon="-1.04748">
        <ele>32</ele>
        <time>2024-05-15T11:05:30Z</time>
      </trkpt>
      <trkpt lat="47.26688" lon="-1.04746">
        <ele>31</ele>
        <time>2024-05-15T11:05:33Z</time>
      </trkpt>
      <trkpt lat="47.26687" lon="-1.0474">
        <ele>31</ele>
        <time>2024-05-15T11:05:39Z</time>
      </trkpt>
      <trkpt lat="47.2668" lon="-1.04737">
        <ele>31</ele>
        <time>2024-05-15T11:05:48Z</time>
      </trkpt>
      <trkpt lat="47.26673" lon="-1.04742">
        <ele>31</ele>
        <time>2024-05-15T11:05:59Z</time>
      </trkpt>
      <trkpt lat="47.26671" lon="-1.04754">
        <ele>33</ele>
        <time>2024-05-15T11:06:10Z</time>
      </trkpt>
      <trkpt lat="47.26673" lon="-1.04766">
        <ele>35</ele>
        <time>2024-05-15T11:06:21Z</time>
      </trkpt>
      <trkpt lat="47.26671" lon="-1.04764">
        <ele>34</ele>
        <time>2024-05-15T11:06:24Z</time>
      </trkpt>
      <trkpt lat="47.26669" lon="-1.04784">
        <ele>38</ele>
        <time>2024-05-15T11:06:43Z</time>
      </trkpt>
      <trkpt lat="47.26665" lon="-1.0479">
        <ele>39</ele>
        <time>2024-05-15T11:06:50Z</time>
      </trkpt>
      <trkpt lat="47.26651" lon="-1.04805">
        <ele>42</ele>
        <time>2024-05-15T11:07:13Z</time>
      </trkpt>
      <trkpt lat="47.26625" lon="-1.04812">
        <ele>43</ele>
        <time>2024-05-15T11:07:49Z</time>
      </trkpt>
      <trkpt lat="47.26616" lon="-1.0482">
        <ele>44</ele>
        <time>2024-05-15T11:08:03Z</time>
      </trkpt>
      <trkpt lat="47.26594" lon="-1.04832">
        <ele>45</ele>
        <time>2024-05-15T11:08:34Z</time>
      </trkpt>
      <trkpt lat="47.2658" lon="-1.04851">
        <ele>46</ele>
        <time>2024-05-15T11:08:59Z</time>
      </trkpt>
      <trkpt lat="47.26568" lon="-1.04858">
        <ele>46</ele>
        <time>2024-05-15T11:09:17Z</time>
      </trkpt>
      <trkpt lat="47.26556" lon="-1.04887">
        <ele>47</ele>
        <time>2024-05-15T11:09:47Z</time>
      </trkpt>
      <trkpt lat="47.26534" lon="-1.04921">
        <ele>47</ele>
        <time>2024-05-15T11:10:30Z</time>
      </trkpt>
      <trkpt lat="47.26522" lon="-1.0493">
        <ele>47</ele>
        <time>2024-05-15T11:10:48Z</time>
      </trkpt>
      <trkpt lat="47.26509" lon="-1.04932">
        <ele>46</ele>
        <time>2024-05-15T11:11:05Z</time>
      </trkpt>
      <trkpt lat="47.26499" lon="-1.04921">
        <ele>45</ele>
        <time>2024-05-15T11:11:22Z</time>
      </trkpt>
      <trkpt lat="47.26463" lon="-1.04869">
        <ele>41</ele>
        <time>2024-05-15T11:12:29Z</time>
      </trkpt>
      <trkpt lat="47.26435" lon="-1.04837">
        <ele>38</ele>
        <time>2024-05-15T11:13:16Z</time>
      </trkpt>
      <trkpt lat="47.26422" lon="-1.0481">
        <ele>35</ele>
        <time>2024-05-15T11:13:46Z</time>
      </trkpt>
      <trkpt lat="47.26413" lon="-1.04777">
        <ele>33</ele>
        <time>2024-05-15T11:14:19Z</time>
      </trkpt>
      <trkpt lat="47.26412" lon="-1.04741">
        <ele>31</ele>
        <time>2024-05-15T11:14:51Z</time>
      </trkpt>
      <trkpt lat="47.26402" lon="-1.04692">
        <ele>29</ele>
        <time>2024-05-15T11:15:38Z</time>
      </trkpt>
      <trkpt lat="47.26393" lon="-1.04678">
        <ele>28</ele>
        <time>2024-05-15T11:15:55Z</time>
      </trkpt>
      <trkpt lat="47.26381" lon="-1.04651">
        <ele>29</ele>
        <time>2024-05-15T11:16:24Z</time>
      </trkpt>
      <trkpt lat="47.26351" lon="-1.04611">
        <ele>34</ele>
        <time>2024-05-15T11:17:18Z</time>
      </trkpt>
      <trkpt lat="47.26359" lon="-1.04599">
        <ele>35</ele>
        <time>2024-05-15T11:17:34Z</time>
      </trkpt>
      <trkpt lat="47.2637" lon="-1.04591">
        <ele>34</ele>
        <time>2024-05-15T11:17:50Z</time>
      </trkpt>
      <trkpt lat="47.26377" lon="-1.04589">
        <ele>34</ele>
        <time>2024-05-15T11:17:59Z</time>
      </trkpt>
      <trkpt lat="47.26367" lon="-1.046">
        <ele>34</ele>
        <time>2024-05-15T11:18:16Z</time>
      </trkpt>
      <trkpt lat="47.26357" lon="-1.04606">
        <ele>34</ele>
        <time>2024-05-15T11:18:31Z</time>
      </trkpt>
      <trkpt lat="47.26354" lon="-1.0462">
        <ele>33</ele>
        <time>2024-05-15T11:18:44Z</time>
      </trkpt>
      <trkpt lat="47.26371" lon="-1.04647">
        <ele>30</ele>
        <time>2024-05-15T11:19:17Z</time>
      </trkpt>
      <trkpt lat="47.2639" lon="-1.04668">
        <ele>28</ele>
        <time>2024-05-15T11:19:49Z</time>
      </trkpt>
      <trkpt lat="47.26404" lon="-1.04692">
        <ele>29</ele>
        <time>2024-05-15T11:20:18Z</time>
      </trkpt>
      <trkpt lat="47.26414" lon="-1.04759">
        <ele>32</ele>
        <time>2024-05-15T11:21:20Z</time>
      </trkpt>
      <trkpt lat="47.26412" lon="-1.04777">
        <ele>33</ele>
        <time>2024-05-15T11:21:36Z</time>
      </trkpt>
      <trkpt lat="47.26426" lon="-1.04824">
        <ele>36</ele>
        <time>2024-05-15T11:22:23Z</time>
      </trkpt>
      <trkpt lat="47.26422" lon="-1.04844">
        <ele>37</ele>
        <time>2024-05-15T11:22:42Z</time>
      </trkpt>
      <trkpt lat="47.26423" lon="-1.0486">
        <ele>37</ele>
        <time>2024-05-15T11:22:56Z</time>
      </trkpt>
      <trkpt lat="47.26414" lon="-1.0491">
        <ele>38</ele>
        <time>2024-05-15T11:23:43Z</time>
      </trkpt>
      <trkpt lat="47.26413" lon="-1.04961">
        <ele>39</ele>
        <time>2024-05-15T11:24:29Z</time>
      </trkpt>
      <trkpt lat="47.26404" lon="-1.05026">
        <ele>40</ele>
        <time>2024-05-15T11:25:29Z</time>
      </trkpt>
      <trkpt lat="47.26401" lon="-1.05079">
        <ele>42</ele>
        <time>2024-05-15T11:26:17Z</time>
      </trkpt>
      <trkpt lat="47.26402" lon="-1.05116">
        <ele>43</ele>
        <time>2024-05-15T11:26:51Z</time>
      </trkpt>
      <trkpt lat="47.26394" lon="-1.05247">
        <ele>48</ele>
        <time>2024-05-15T11:28:50Z</time>
      </trkpt>
      <trkpt lat="47.26394" lon="-1.05299">
        <ele>48</ele>
        <time>2024-05-15T11:29:37Z</time>
      </trkpt>
      <trkpt lat="47.2639" lon="-1.05335">
        <ele>47</ele>
        <time>2024-05-15T11:30:10Z</time>
      </trkpt>
      <trkpt lat="47.26388" lon="-1.05389">
        <ele>47</ele>
        <time>2024-05-15T11:30:59Z</time>
      </trkpt>
      <trkpt lat="47.26381" lon="-1.05427">
        <ele>47</ele>
        <time>2024-05-15T11:31:35Z</time>
      </trkpt>
      <trkpt lat="47.26357" lon="-1.0547">
        <ele>47</ele>
        <time>2024-05-15T11:32:25Z</time>
      </trkpt>
      <trkpt lat="47.26297" lon="-1.05733">
        <ele>53</ele>
        <time>2024-05-15T11:36:36Z</time>
      </trkpt>
      <trkpt lat="47.26288" lon="-1.05787">
        <ele>53</ele>
        <time>2024-05-15T11:37:27Z</time>
      </trkpt>
      <trkpt lat="47.26294" lon="-1.05856">
        <ele>53</ele>
        <time>2024-05-15T11:38:30Z</time>
      </trkpt>
      <trkpt lat="47.26293" lon="-1.05896">
        <ele>52</ele>
        <time>2024-05-15T11:39:06Z</time>
      </trkpt>
      <trkpt lat="47.26262" lon="-1.06074">
        <ele>59</ele>
        <time>2024-05-15T11:41:52Z</time>
      </trkpt>
      <trkpt lat="47.2624" lon="-1.06146">
        <ele>61</ele>
        <time>2024-05-15T11:43:04Z</time>
      </trkpt>
      <trkpt lat="47.26214" lon="-1.06271">
        <ele>64</ele>
        <time>2024-05-15T11:45:02Z</time>
      </trkpt>
      <trkpt lat="47.2621" lon="-1.06307">
        <ele>65</ele>
        <time>2024-05-15T11:45:35Z</time>
      </trkpt>
      <trkpt lat="47.26195" lon="-1.06354">
        <ele>65</ele>
        <time>2024-05-15T11:46:22Z</time>
      </trkpt>
      <trkpt lat="47.26171" lon="-1.06413">
        <ele>65</ele>
        <time>2024-05-15T11:47:25Z</time>
      </trkpt>
      <trkpt lat="47.26157" lon="-1.06468">
        <ele>67</ele>
        <time>2024-05-15T11:48:18Z</time>
      </trkpt>
      <trkpt lat="47.26157" lon="-1.06483">
        <ele>68</ele>
        <time>2024-05-15T11:48:32Z</time>
      </trkpt>
      <trkpt lat="47.26161" lon="-1.06496">
        <ele>69</ele>
        <time>2024-05-15T11:48:44Z</time>
      </trkpt>
      <trkpt lat="47.26161" lon="-1.06528">
        <ele>71</ele>
        <time>2024-05-15T11:49:13Z</time>
      </trkpt>
      <trkpt lat="47.2615" lon="-1.06627">
        <ele>75</ele>
        <time>2024-05-15T11:50:44Z</time>
      </trkpt>
      <trkpt lat="47.26147" lon="-1.06692">
        <ele>76</ele>
        <time>2024-05-15T11:51:43Z</time>
      </trkpt>
      <trkpt lat="47.26143" lon="-1.0671">
        <ele>76</ele>
        <time>2024-05-15T11:52:00Z</time>
      </trkpt>
      <trkpt lat="47.26142" lon="-1.0673">
        <ele>77</ele>
        <time>2024-05-15T11:52:19Z</time>
      </trkpt>
      <trkpt lat="47.26138" lon="-1.06744">
        <ele>77</ele>
        <time>2024-05-15T11:52:32Z</time>
      </trkpt>
      <trkpt lat="47.26136" lon="-1.06771">
        <ele>78</ele>
        <time>2024-05-15T11:52:57Z</time>
      </trkpt>
      <trkpt lat="47.26126" lon="-1.06823">
        <ele>80</ele>
        <time>2024-05-15T11:53:46Z</time>
      </trkpt>
      <trkpt lat="47.26121" lon="-1.06867">
        <ele>82</ele>
        <time>2024-05-15T11:54:26Z</time>
      </trkpt>
      <trkpt lat="47.26109" lon="-1.06931">
        <ele>86</ele>
        <time>2024-05-15T11:55:26Z</time>
      </trkpt>
      <trkpt lat="47.261" lon="-1.06963">
        <ele>86</ele>
        <time>2024-05-15T11:55:58Z</time>
      </trkpt>
      <trkpt lat="47.26093" lon="-1.07052">
        <ele>90</ele>
        <time>2024-05-15T11:57:19Z</time>
      </trkpt>
      <trkpt lat="47.26084" lon="-1.07123">
        <ele>92</ele>
        <time>2024-05-15T11:58:24Z</time>
      </trkpt>
      <trkpt lat="47.26073" lon="-1.07168">
        <ele>93</ele>
        <time>2024-05-15T11:59:08Z</time>
      </trkpt>
      <trkpt lat="47.26067" lon="-1.07182">
        <ele>93</ele>
        <time>2024-05-15T11:59:23Z</time>
      </trkpt>
      <trkpt lat="47.26018" lon="-1.07267">
        <ele>91</ele>
        <time>2024-05-15T12:01:04Z</time>
      </trkpt>
      <trkpt lat="47.26004" lon="-1.07296">
        <ele>90</ele>
        <time>2024-05-15T12:01:36Z</time>
      </trkpt>
      <trkpt lat="47.25996" lon="-1.07307">
        <ele>90</ele>
        <time>2024-05-15T12:01:51Z</time>
      </trkpt>
      <trkpt lat="47.25974" lon="-1.07349">
        <ele>89</ele>
        <time>2024-05-15T12:02:39Z</time>
      </trkpt>
      <trkpt lat="47.25955" lon="-1.07393">
        <ele>88</ele>
        <time>2024-05-15T12:03:26Z</time>
      </trkpt>
      <trkpt lat="47.25945" lon="-1.07408">
        <ele>87</ele>
        <time>2024-05-15T12:03:45Z</time>
      </trkpt>
      <trkpt lat="47.25939" lon="-1.07424">
        <ele>86</ele>
        <time>2024-05-15T12:04:01Z</time>
      </trkpt>
      <trkpt lat="47.25914" lon="-1.0747">
        <ele>84</ele>
        <time>2024-05-15T12:04:55Z</time>
      </trkpt>
      <trkpt lat="47.25899" lon="-1.07491">
        <ele>84</ele>
        <time>2024-05-15T12:05:22Z</time>
      </trkpt>
      <trkpt lat="47.25885" lon="-1.07521">
        <ele>84</ele>
        <time>2024-05-15T12:05:55Z</time>
      </trkpt>
      <trkpt lat="47.25878" lon="-1.0753">
        <ele>84</ele>
        <time>2024-05-15T12:06:08Z</time>
      </trkpt>
      <trkpt lat="47.25866" lon="-1.0756">
        <ele>85</ele>
        <time>2024-05-15T12:06:39Z</time>
      </trkpt>
      <trkpt lat="47.25812" lon="-1.07664">
        <ele>88</ele>
        <time>2024-05-15T12:08:38Z</time>
      </trkpt>
      <trkpt lat="47.25809" lon="-1.07678">
        <ele>88</ele>
        <time>2024-05-15T12:08:51Z</time>
      </trkpt>
      <trkpt lat="47.25802" lon="-1.07692">
        <ele>88</ele>
        <time>2024-05-15T12:09:07Z</time>
      </trkpt>
      <trkpt lat="47.25763" lon="-1.07759">
        <ele>88</ele>
        <time>2024-05-15T12:10:27Z</time>
      </trkpt>
      <trkpt lat="47.25751" lon="-1.07764">
        <ele>88</ele>
        <time>2024-05-15T12:10:44Z</time>
      </trkpt>
      <trkpt lat="47.2574" lon="-1.07759">
        <ele>87</ele>
        <time>2024-05-15T12:10:59Z</time>
      </trkpt>
      <trkpt lat="47.25696" lon="-1.07718">
        <ele>84</ele>
        <time>2024-05-15T12:12:08Z</time>
      </trkpt>
      <trkpt lat="47.25678" lon="-1.07705">
        <ele>83</ele>
        <time>2024-05-15T12:12:35Z</time>
      </trkpt>
      <trkpt lat="47.25668" lon="-1.07709">
        <ele>83</ele>
        <time>2024-05-15T12:12:49Z</time>
      </trkpt>
      <trkpt lat="47.25629" lon="-1.07755">
        <ele>84</ele>
        <time>2024-05-15T12:13:56Z</time>
      </trkpt>
      <trkpt lat="47.2562" lon="-1.07764">
        <ele>84</ele>
        <time>2024-05-15T12:14:10Z</time>
      </trkpt>
      <trkpt lat="47.2561" lon="-1.07769">
        <ele>84</ele>
        <time>2024-05-15T12:14:24Z</time>
      </trkpt>
      <trkpt lat="47.25583" lon="-1.07798">
        <ele>84</ele>
        <time>2024-05-15T12:15:09Z</time>
      </trkpt>
      <trkpt lat="47.25567" lon="-1.07807">
        <ele>84</ele>
        <time>2024-05-15T12:15:32Z</time>
      </trkpt>
      <trkpt lat="47.25566" lon="-1.07812">
        <ele>84</ele>
        <time>2024-05-15T12:15:36Z</time>
      </trkpt>
      <trkpt lat="47.25582" lon="-1.07924">
        <ele>85</ele>
        <time>2024-05-15T12:17:20Z</time>
      </trkpt>
      <trkpt lat="47.25582" lon="-1.08024">
        <ele>88</ele>
        <time>2024-05-15T12:18:51Z</time>
      </trkpt>
      <trkpt lat="47.25573" lon="-1.08089">
        <ele>89</ele>
        <time>2024-05-15T12:19:51Z</time>
      </trkpt>
      <trkpt lat="47.25538" lon="-1.0826">
        <ele>95</ele>
        <time>2024-05-15T12:22:32Z</time>
      </trkpt>
      <trkpt lat="47.25538" lon="-1.08276">
        <ele>95</ele>
        <time>2024-05-15T12:22:47Z</time>
      </trkpt>
      <trkpt lat="47.25542" lon="-1.08289">
        <ele>95</ele>
        <time>2024-05-15T12:23:00Z</time>
      </trkpt>
      <trkpt lat="47.25552" lon="-1.08288">
        <ele>95</ele>
        <time>2024-05-15T12:23:13Z</time>
      </trkpt>
      <trkpt lat="47.25595" lon="-1.08259">
        <ele>95</ele>
        <time>2024-05-15T12:24:16Z</time>
      </trkpt>
      <trkpt lat="47.25608" lon="-1.08257">
        <ele>96</ele>
        <time>2024-05-15T12:24:34Z</time>
      </trkpt>
      <trkpt lat="47.25629" lon="-1.08244">
        <ele>96</ele>
        <time>2024-05-15T12:25:04Z</time>
      </trkpt>
      <trkpt lat="47.25666" lon="-1.08229">
        <ele>96</ele>
        <time>2024-05-15T12:25:55Z</time>
      </trkpt>
      <trkpt lat="47.25698" lon="-1.08209">
        <ele>98</ele>
        <time>2024-05-15T12:26:42Z</time>
      </trkpt>
      <trkpt lat="47.25727" lon="-1.08184">
        <ele>100</ele>
        <time>2024-05-15T12:27:27Z</time>
      </trkpt>
      <trkpt lat="47.2577" lon="-1.08152">
        <ele>101</ele>
        <time>2024-05-15T12:28:31Z</time>
      </trkpt>
      <trkpt lat="47.25777" lon="-1.08153">
        <ele>102</ele>
        <time>2024-05-15T12:28:40Z</time>
      </trkpt>
      <trkpt lat="47.25778" lon="-1.08155">
        <ele>102</ele>
        <time>2024-05-15T12:28:43Z</time>
      </trkpt>
      <trkpt lat="47.25788" lon="-1.08139">
        <ele>102</ele>
        <time>2024-05-15T12:29:02Z</time>
      </trkpt>
      <trkpt lat="47.25832" lon="-1.08114">
        <ele>103</ele>
        <time>2024-05-15T12:30:05Z</time>
      </trkpt>
      <trkpt lat="47.25852" lon="-1.08099">
        <ele>102</ele>
        <time>2024-05-15T12:30:35Z</time>
      </trkpt>
      <trkpt lat="47.25983" lon="-1.08039">
        <ele>99</ele>
        <time>2024-05-15T12:33:38Z</time>
      </trkpt>
      <trkpt lat="47.25992" lon="-1.08029">
        <ele>99</ele>
        <time>2024-05-15T12:33:53Z</time>
      </trkpt>
      <trkpt lat="47.26033" lon="-1.07959">
        <ele>99</ele>
        <time>2024-05-15T12:35:17Z</time>
      </trkpt>
      <trkpt lat="47.26075" lon="-1.07895">
        <ele>99</ele>
        <time>2024-05-15T12:36:38Z</time>
      </trkpt>
      <trkpt lat="47.26101" lon="-1.07852">
        <ele>98</ele>
        <time>2024-05-15T12:37:30Z</time>
      </trkpt>
      <trkpt lat="47.26129" lon="-1.07798">
        <ele>97</ele>
        <time>2024-05-15T12:38:31Z</time>
      </trkpt>
      <trkpt lat="47.26145" lon="-1.07776">
        <ele>98</ele>
        <time>2024-05-15T12:39:01Z</time>
      </trkpt>
      <trkpt lat="47.2618" lon="-1.07761">
        <ele>98</ele>
        <time>2024-05-15T12:39:49Z</time>
      </trkpt>
      <trkpt lat="47.26216" lon="-1.0775">
        <ele>99</ele>
        <time>2024-05-15T12:40:38Z</time>
      </trkpt>
      <trkpt lat="47.26242" lon="-1.07746">
        <ele>100</ele>
        <time>2024-05-15T12:41:13Z</time>
      </trkpt>
      <trkpt lat="47.26276" lon="-1.07736">
        <ele>101</ele>
        <time>2024-05-15T12:41:59Z</time>
      </trkpt>
      <trkpt lat="47.26288" lon="-1.07729">
        <ele>101</ele>
        <time>2024-05-15T12:42:17Z</time>
      </trkpt>
      <trkpt lat="47.26307" lon="-1.0771">
        <ele>101</ele>
        <time>2024-05-15T12:42:47Z</time>
      </trkpt>
      <trkpt lat="47.26368" lon="-1.07598">
        <ele>103</ele>
        <time>2024-05-15T12:44:57Z</time>
      </trkpt>
      <trkpt lat="47.26374" lon="-1.07583">
        <ele>103</ele>
        <time>2024-05-15T12:45:13Z</time>
      </trkpt>
      <trkpt lat="47.26393" lon="-1.07559">
        <ele>102</ele>
        <time>2024-05-15T12:45:46Z</time>
      </trkpt>
      <trkpt lat="47.26403" lon="-1.07551">
        <ele>102</ele>
        <time>2024-05-15T12:46:02Z</time>
      </trkpt>
      <trkpt lat="47.26429" lon="-1.07537">
        <ele>102</ele>
        <time>2024-05-15T12:46:39Z</time>
      </trkpt>
      <trkpt lat="47.2645" lon="-1.07531">
        <ele>102</ele>
        <time>2024-05-15T12:47:07Z</time>
      </trkpt>
      <trkpt lat="47.26498" lon="-1.07511">
        <ele>102</ele>
        <time>2024-05-15T12:48:14Z</time>
      </trkpt>
      <trkpt lat="47.26509" lon="-1.07514">
        <ele>102</ele>
        <time>2024-05-15T12:48:29Z</time>
      </trkpt>
      <trkpt lat="47.26527" lon="-1.07537">
        <ele>102</ele>
        <time>2024-05-15T12:49:00Z</time>
      </trkpt>
      <trkpt lat="47.26535" lon="-1.0755">
        <ele>102</ele>
        <time>2024-05-15T12:49:16Z</time>
      </trkpt>
      <trkpt lat="47.26535" lon="-1.07567">
        <ele>102</ele>
        <time>2024-05-15T12:49:32Z</time>
      </trkpt>
      <trkpt lat="47.26541" lon="-1.07576">
        <ele>102</ele>
        <time>2024-05-15T12:49:43Z</time>
      </trkpt>
      <trkpt lat="47.26536" lon="-1.07571">
        <ele>102</ele>
        <time>2024-05-15T12:49:51Z</time>
      </trkpt>
      <trkpt lat="47.26526" lon="-1.07585">
        <ele>102</ele>
        <time>2024-05-15T12:50:10Z</time>
      </trkpt>
      <trkpt lat="47.26523" lon="-1.07603">
        <ele>102</ele>
        <time>2024-05-15T12:50:26Z</time>
      </trkpt>
      <trkpt lat="47.26517" lon="-1.07618">
        <ele>102</ele>
        <time>2024-05-15T12:50:42Z</time>
      </trkpt>
      <trkpt lat="47.26503" lon="-1.07733">
        <ele>101</ele>
        <time>2024-05-15T12:52:28Z</time>
      </trkpt>
      <trkpt lat="47.26517" lon="-1.07823">
        <ele>99</ele>
        <time>2024-05-15T12:53:52Z</time>
      </trkpt>
      <trkpt lat="47.26516" lon="-1.07934">
        <ele>97</ele>
        <time>2024-05-15T12:55:32Z</time>
      </trkpt>
      <trkpt lat="47.26539" lon="-1.08126">
        <ele>101</ele>
        <time>2024-05-15T12:58:29Z</time>
      </trkpt>
      <trkpt lat="47.2655" lon="-1.08255">
        <ele>103</ele>
        <time>2024-05-15T13:00:26Z</time>
      </trkpt>
      <trkpt lat="47.26549" lon="-1.08329">
        <ele>101</ele>
        <time>2024-05-15T13:01:33Z</time>
      </trkpt>
      <trkpt lat="47.26542" lon="-1.08383">
        <ele>101</ele>
        <time>2024-05-15T13:02:23Z</time>
      </trkpt>
      <trkpt lat="47.26551" lon="-1.08392">
        <ele>101</ele>
        <time>2024-05-15T13:02:38Z</time>
      </trkpt>
      <trkpt lat="47.26588" lon="-1.08452">
        <ele>102</ele>
        <time>2024-05-15T13:03:51Z</time>
      </trkpt>
      <trkpt lat="47.26599" lon="-1.08466">
        <ele>102</ele>
        <time>2024-05-15T13:04:11Z</time>
      </trkpt>
      <trkpt lat="47.26619" lon="-1.08483">
        <ele>103</ele>
        <time>2024-05-15T13:04:41Z</time>
      </trkpt>
      <trkpt lat="47.26643" lon="-1.08491">
        <ele>103</ele>
        <time>2024-05-15T13:05:14Z</time>
      </trkpt>
      <trkpt lat="47.26717" lon="-1.08494">
        <ele>104</ele>
        <time>2024-05-15T13:06:53Z</time>
      </trkpt>
      <trkpt lat="47.26741" lon="-1.08497">
        <ele>104</ele>
        <time>2024-05-15T13:07:25Z</time>
      </trkpt>
      <trkpt lat="47.26752" lon="-1.08499">
        <ele>104</ele>
        <time>2024-05-15T13:07:40Z</time>
      </trkpt>
      <trkpt lat="47.26764" lon="-1.08505">
        <ele>104</ele>
        <time>2024-05-15T13:07:57Z</time>
      </trkpt>
      <trkpt lat="47.26802" lon="-1.08553">
        <ele>104</ele>
        <time>2024-05-15T13:09:04Z</time>
      </trkpt>
      <trkpt lat="47.26821" lon="-1.08573">
        <ele>105</ele>
        <time>2024-05-15T13:09:35Z</time>
      </trkpt>
      <trkpt lat="47.26888" lon="-1.08619">
        <ele>104</ele>
        <time>2024-05-15T13:11:13Z</time>
      </trkpt>
      <trkpt lat="47.26924" lon="-1.08637">
        <ele>103</ele>
        <time>2024-05-15T13:12:04Z</time>
      </trkpt>
      <trkpt lat="47.26935" lon="-1.08634">
        <ele>103</ele>
        <time>2024-05-15T13:12:19Z</time>
      </trkpt>
      <trkpt lat="47.26944" lon="-1.08619">
        <ele>103</ele>
        <time>2024-05-15T13:12:37Z</time>
      </trkpt>
      <trkpt lat="47.26953" lon="-1.08584">
        <ele>104</ele>
        <time>2024-05-15T13:13:11Z</time>
      </trkpt>
      <trkpt lat="47.26964" lon="-1.08512">
        <ele>104</ele>
        <time>2024-05-15T13:14:18Z</time>
      </trkpt>
      <trkpt lat="47.26989" lon="-1.08416">
        <ele>103</ele>
        <time>2024-05-15T13:15:51Z</time>
      </trkpt>
      <trkpt lat="47.27002" lon="-1.08413">
        <ele>103</ele>
        <time>2024-05-15T13:16:09Z</time>
      </trkpt>
      <trkpt lat="47.27013" lon="-1.08415">
        <ele>102</ele>
        <time>2024-05-15T13:16:23Z</time>
      </trkpt>
      <trkpt lat="47.27039" lon="-1.08411">
        <ele>101</ele>
        <time>2024-05-15T13:16:58Z</time>
      </trkpt>
      <trkpt lat="47.27064" lon="-1.08399">
        <ele>100</ele>
        <time>2024-05-15T13:17:33Z</time>
      </trkpt>
      <trkpt lat="47.27137" lon="-1.08353">
        <ele>98</ele>
        <time>2024-05-15T13:19:19Z</time>
      </trkpt>
      <trkpt lat="47.2716" lon="-1.08344">
        <ele>98</ele>
        <time>2024-05-15T13:19:51Z</time>
      </trkpt>
      <trkpt lat="47.27198" lon="-1.08344">
        <ele>98</ele>
        <time>2024-05-15T13:20:42Z</time>
      </trkpt>
      <trkpt lat="47.27237" lon="-1.08349">
        <ele>97</ele>
        <time>2024-05-15T13:21:34Z</time>
      </trkpt>
      <trkpt lat="47.27261" lon="-1.08355">
        <ele>96</ele>
        <time>2024-05-15T13:22:06Z</time>
      </trkpt>
      <trkpt lat="47.27299" lon="-1.08358">
        <ele>96</ele>
        <time>2024-05-15T13:22:57Z</time>
      </trkpt>
      <trkpt lat="47.27311" lon="-1.08356">
        <ele>96</ele>
        <time>2024-05-15T13:23:13Z</time>
      </trkpt>
      <trkpt lat="47.2735" lon="-1.08339">
        <ele>95</ele>
        <time>2024-05-15T13:24:08Z</time>
      </trkpt>
      <trkpt lat="47.27347" lon="-1.08308">
        <ele>94</ele>
        <time>2024-05-15T13:24:36Z</time>
      </trkpt>
      <trkpt lat="47.27323" lon="-1.08215">
        <ele>93</ele>
        <time>2024-05-15T13:26:06Z</time>
      </trkpt>
      <trkpt lat="47.27305" lon="-1.08124">
        <ele>93</ele>
        <time>2024-05-15T13:27:32Z</time>
      </trkpt>
      <trkpt lat="47.27305" lon="-1.08104">
        <ele>92</ele>
        <time>2024-05-15T13:27:50Z</time>
      </trkpt>
      <trkpt lat="47.27296" lon="-1.08065">
        <ele>92</ele>
        <time>2024-05-15T13:28:27Z</time>
      </trkpt>
      <trkpt lat="47.27289" lon="-1.0801">
        <ele>92</ele>
        <time>2024-05-15T13:29:18Z</time>
      </trkpt>
      <trkpt lat="47.27293" lon="-1.07993">
        <ele>92</ele>
        <time>2024-05-15T13:29:34Z</time>
      </trkpt>
      <trkpt lat="47.27303" lon="-1.07983">
        <ele>91</ele>
        <time>2024-05-15T13:29:50Z</time>
      </trkpt>
      <trkpt lat="47.27316" lon="-1.07978">
        <ele>91</ele>
        <time>2024-05-15T13:30:08Z</time>
      </trkpt>
      <trkpt lat="47.27331" lon="-1.07953">
        <ele>90</ele>
        <time>2024-05-15T13:30:39Z</time>
      </trkpt>
      <trkpt lat="47.27355" lon="-1.07892">
        <ele>88</ele>
        <time>2024-05-15T13:31:42Z</time>
      </trkpt>
      <trkpt lat="47.27364" lon="-1.0788">
        <ele>87</ele>
        <time>2024-05-15T13:31:59Z</time>
      </trkpt>
      <trkpt lat="47.27395" lon="-1.0782">
        <ele>86</ele>
        <time>2024-05-15T13:33:07Z</time>
      </trkpt>
      <trkpt lat="47.27395" lon="-1.07808">
        <ele>85</ele>
        <time>2024-05-15T13:33:18Z</time>
      </trkpt>
      <trkpt lat="47.27393" lon="-1.07808">
        <ele>86</ele>
        <time>2024-05-15T13:33:20Z</time>
      </trkpt>
    </trkseg>
  </trk>
</gpx>